createdAt,value
2023-07-18T00:00:18.736Z,47.78
2023-07-18T00:02:46.836Z,47.55
2023-07-18T00:05:15.902Z,47.81
2023-07-18T00:07:43.519Z,48.72
2023-07-18T00:10:11.371Z,48.06
2023-07-18T00:12:42.587Z,47.90
2023-07-18T00:15:10.877Z,48.05
2023-07-18T00:17:40.933Z,47.66
2023-07-18T00:20:13.825Z,47.72
2023-07-18T00:22:50.691Z,47.74
2023-07-18T00:25:21.377Z,47.66
2023-07-18T00:27:55.360Z,47.31
2023-07-18T00:30:25.209Z,47.60
2023-07-18T00:32:57.918Z,48.09
2023-07-18T00:35:24.746Z,48.35
2023-07-18T00:37:53.732Z,48.45
2023-07-18T00:40:20.454Z,48.98
2023-07-18T00:42:48.751Z,49.53
2023-07-18T00:45:21.528Z,49.73
2023-07-18T00:47:51.524Z,50.11
2023-07-18T00:50:19.322Z,50.12
2023-07-18T00:52:54.847Z,49.99
2023-07-18T00:55:21.967Z,49.67
2023-07-18T00:57:55.271Z,49.70
2023-07-18T01:00:24.330Z,50.29
2023-07-18T01:02:54.678Z,50.57
2023-07-18T01:05:21.923Z,51.44
2023-07-18T01:07:49.002Z,51.52
2023-07-18T01:10:24.815Z,52.29
2023-07-18T01:12:55.493Z,52.88
2023-07-18T01:15:22.424Z,52.75
2023-07-18T01:17:50.335Z,53.29
2023-07-18T01:20:30.357Z,53.24
2023-07-18T01:22:59.428Z,53.51
2023-07-18T01:25:27.848Z,53.36
2023-07-18T01:27:56.795Z,54.55
2023-07-18T01:30:28.705Z,54.21
2023-07-18T01:32:58.164Z,54.78
2023-07-18T01:35:26.507Z,54.70
2023-07-18T01:37:54.801Z,54.92
2023-07-18T01:40:25.098Z,54.81
2023-07-18T01:42:57.479Z,54.60
2023-07-18T01:45:33.172Z,54.98
2023-07-18T01:48:03.526Z,55.08
2023-07-18T01:50:33.291Z,55.27
2023-07-18T01:53:02.261Z,54.84
2023-07-18T01:55:31.354Z,55.53
2023-07-18T01:57:57.999Z,55.51
2023-07-18T02:00:25.588Z,55.67
2023-07-18T02:02:54.738Z,55.91
2023-07-18T02:05:26.297Z,56.17
2023-07-18T02:07:56.786Z,55.98
2023-07-18T02:10:26.504Z,55.80
2023-07-18T02:12:59.227Z,55.22
2023-07-18T02:15:26.041Z,55.45
2023-07-18T02:17:53.223Z,54.95
2023-07-18T02:20:20.069Z,55.30
2023-07-18T02:22:52.626Z,55.35
2023-07-18T02:25:19.632Z,55.22
2023-07-18T02:27:46.489Z,54.85
2023-07-18T02:30:16.560Z,54.38
2023-07-18T02:32:44.195Z,54.42
2023-07-18T02:35:19.519Z,54.50
2023-07-18T02:37:49.012Z,53.46
2023-07-18T02:40:19.770Z,53.42
2023-07-18T02:42:49.014Z,53.79
2023-07-18T02:45:20.464Z,53.64
2023-07-18T02:47:47.088Z,54.03
2023-07-18T02:50:16.008Z,53.92
2023-07-18T02:52:42.711Z,53.24
2023-07-18T02:55:09.619Z,53.03
2023-07-18T02:57:38.767Z,53.20
2023-07-18T03:00:12.122Z,53.24
2023-07-18T03:02:38.871Z,53.37
2023-07-18T03:05:08.192Z,53.66
2023-07-18T03:07:37.258Z,53.65
2023-07-18T03:10:07.097Z,54.01
2023-07-18T03:12:33.666Z,53.58
2023-07-18T03:15:00.404Z,53.58
2023-07-18T03:17:29.420Z,53.68
2023-07-18T03:19:58.547Z,53.13
2023-07-18T03:22:27.568Z,53.17
2023-07-18T03:24:56.254Z,52.82
2023-07-18T03:27:22.848Z,52.62
2023-07-18T03:29:49.430Z,52.64
2023-07-18T03:32:20.509Z,53.07
2023-07-18T03:34:47.674Z,52.58
2023-07-18T03:37:14.256Z,53.21
2023-07-18T03:39:41.661Z,52.60
2023-07-18T03:42:08.330Z,52.84
2023-07-18T03:44:35.015Z,53.02
2023-07-18T03:47:11.160Z,53.18
2023-07-18T03:49:46.220Z,52.79
2023-07-18T03:52:15.218Z,52.83
2023-07-18T03:54:42.100Z,52.98
2023-07-18T03:57:08.731Z,52.74
2023-07-18T03:59:39.785Z,51.85
2023-07-18T04:02:07.014Z,51.51
2023-07-18T04:04:35.991Z,51.54
2023-07-18T04:07:07.264Z,51.41
2023-07-18T04:09:36.613Z,51.66
2023-07-18T04:12:08.560Z,51.95
2023-07-18T04:14:37.122Z,51.46
2023-07-18T04:17:04.032Z,51.28
2023-07-18T04:19:32.944Z,51.23
2023-07-18T04:21:59.534Z,50.32
2023-07-18T04:24:26.641Z,50.37
2023-07-18T04:26:55.569Z,50.33
2023-07-18T04:29:25.415Z,50.05
2023-07-18T04:31:52.856Z,50.09
2023-07-18T04:34:20.298Z,49.91
2023-07-18T04:36:46.959Z,49.87
2023-07-18T04:39:13.587Z,50.52
2023-07-18T04:41:53.606Z,50.74
2023-07-18T04:44:21.579Z,49.49
2023-07-18T04:46:56.266Z,50.06
2023-07-18T04:49:26.313Z,50.42
2023-07-18T04:51:55.380Z,50.91
2023-07-18T04:54:24.301Z,50.51
2023-07-18T04:56:54.817Z,51.19
2023-07-18T04:59:22.918Z,51.45
2023-07-18T05:01:56.979Z,51.30
2023-07-18T05:04:23.811Z,52.16
2023-07-18T05:06:50.523Z,52.52
2023-07-18T05:09:20.601Z,52.45
2023-07-18T05:11:48.193Z,52.59
2023-07-18T05:14:14.853Z,53.03
2023-07-18T05:16:41.473Z,53.09
2023-07-18T05:19:10.339Z,53.56
2023-07-18T05:21:39.138Z,51.98
2023-07-18T05:24:08.232Z,52.44
2023-07-18T05:26:39.623Z,51.16
2023-07-18T05:29:09.232Z,50.82
2023-07-18T05:31:38.116Z,49.47
2023-07-18T05:34:07.255Z,47.63
2023-07-18T05:36:36.207Z,47.94
2023-07-18T05:39:04.000Z,46.83
2023-07-18T05:41:30.670Z,46.75
2023-07-18T05:43:57.296Z,46.02
2023-07-18T05:46:24.037Z,45.52
2023-07-18T05:48:50.861Z,44.42
2023-07-18T05:51:17.701Z,43.61
2023-07-18T05:53:44.575Z,45.40
2023-07-18T05:56:11.226Z,46.12
2023-07-18T05:58:37.883Z,44.38
2023-07-18T06:01:15.896Z,45.06
2023-07-18T06:03:42.734Z,44.72
2023-07-18T06:06:09.490Z,45.02
2023-07-18T06:08:36.143Z,44.09
2023-07-18T06:11:02.891Z,43.60
2023-07-18T06:13:29.704Z,43.12
2023-07-18T06:15:56.355Z,43.38
2023-07-18T06:18:25.322Z,43.59
2023-07-18T06:20:52.028Z,41.56
2023-07-18T06:23:18.904Z,41.12
2023-07-18T06:25:45.550Z,41.64
2023-07-18T06:28:16.893Z,41.06
2023-07-18T06:30:46.692Z,39.88
2023-07-18T06:33:17.090Z,40.76
2023-07-18T06:35:52.766Z,39.90
2023-07-18T06:38:22.226Z,39.81
2023-07-18T06:40:51.100Z,40.73
2023-07-18T06:43:20.561Z,38.60
2023-07-18T06:45:50.398Z,39.16
2023-07-18T06:48:21.660Z,39.00
2023-07-18T06:50:49.742Z,38.56
2023-07-18T06:53:20.035Z,39.90
2023-07-18T06:55:47.824Z,37.88
2023-07-18T06:58:17.816Z,38.91
2023-07-18T07:00:46.684Z,39.36
2023-07-18T07:03:16.301Z,38.08
2023-07-18T07:05:45.777Z,38.18
2023-07-18T07:08:13.941Z,38.78
2023-07-18T07:10:42.929Z,38.33
2023-07-18T07:13:13.187Z,38.58
2023-07-18T07:15:39.865Z,39.22
2023-07-18T07:18:08.876Z,38.82
2023-07-18T07:20:41.476Z,38.79
2023-07-18T07:23:13.557Z,39.75
2023-07-18T07:25:40.471Z,36.91
2023-07-18T07:28:07.140Z,37.61
2023-07-18T07:30:39.278Z,35.45
2023-07-18T07:33:12.013Z,35.84
2023-07-18T07:35:45.930Z,36.98
2023-07-18T07:38:16.221Z,37.14
2023-07-18T07:40:47.378Z,37.91
2023-07-18T07:43:16.317Z,37.27
2023-07-18T07:45:45.901Z,36.17
2023-07-18T07:48:12.572Z,33.99
2023-07-18T07:50:47.166Z,32.02
2023-07-18T07:53:13.645Z,33.40
2023-07-18T07:55:43.759Z,34.51
2023-07-18T07:58:10.333Z,35.11
2023-07-18T08:00:40.313Z,31.96
2023-07-18T08:03:06.999Z,32.69
2023-07-18T08:05:38.243Z,33.50
2023-07-18T08:08:05.650Z,35.64
2023-07-18T08:10:32.656Z,34.96
2023-07-18T08:13:01.799Z,35.94
2023-07-18T08:15:28.466Z,35.29
2023-07-18T08:17:58.378Z,32.86
2023-07-18T08:20:25.279Z,34.86
2023-07-18T08:22:53.876Z,34.99
2023-07-18T08:25:20.595Z,34.75
2023-07-18T08:27:49.554Z,34.37
2023-07-18T08:30:24.604Z,34.59
2023-07-18T08:32:51.517Z,33.39
2023-07-18T08:35:26.288Z,33.62
2023-07-18T08:37:53.051Z,33.71
2023-07-18T08:40:19.691Z,33.94
2023-07-18T08:42:48.568Z,35.54
2023-07-18T08:45:17.546Z,34.04
2023-07-18T08:47:45.107Z,35.45
2023-07-18T08:50:12.178Z,35.43
2023-07-18T08:52:41.476Z,35.06
2023-07-18T08:55:10.620Z,34.40
2023-07-18T08:57:42.860Z,34.34
2023-07-18T09:00:12.795Z,34.91
2023-07-18T09:02:39.610Z,36.48
2023-07-18T09:05:06.593Z,36.60
2023-07-18T09:07:39.443Z,36.94
2023-07-18T09:10:06.776Z,36.09
2023-07-18T09:12:36.552Z,36.33
2023-07-18T09:15:03.240Z,35.36
2023-07-18T09:20:25.783Z,34.31
2023-07-18T09:23:04.476Z,34.67
2023-07-18T09:25:32.764Z,34.19
2023-07-18T09:27:59.692Z,33.45
2023-07-18T09:30:30.100Z,33.73
2023-07-18T09:32:56.896Z,33.01
2023-07-18T09:35:28.337Z,33.57
2023-07-18T09:37:54.971Z,32.97
2023-07-18T09:40:24.109Z,33.10
2023-07-18T09:42:56.747Z,32.88
2023-07-18T09:45:24.542Z,32.31
2023-07-18T09:47:53.804Z,32.26
2023-07-18T09:50:20.532Z,32.54
2023-07-18T09:52:50.534Z,31.93
2023-07-18T09:55:30.951Z,31.77
2023-07-18T09:58:02.786Z,33.18
2023-07-18T10:00:30.180Z,32.79
2023-07-18T10:02:57.562Z,32.85
2023-07-18T10:05:24.710Z,32.17
2023-07-18T10:07:54.553Z,32.96
2023-07-18T10:10:21.385Z,32.65
2023-07-18T10:13:03.256Z,33.05
2023-07-18T10:15:30.183Z,32.99
2023-07-18T10:18:16.632Z,32.64
2023-07-18T10:21:00.121Z,31.94
2023-07-18T10:23:45.295Z,32.45
2023-07-18T10:26:11.982Z,30.25
2023-07-18T10:28:46.921Z,29.57
2023-07-18T10:31:36.273Z,29.80
2023-07-18T10:34:19.362Z,29.69
2023-07-18T10:37:02.942Z,30.55
2023-07-18T10:39:50.879Z,29.11
2023-07-18T10:42:24.846Z,30.58
2023-07-18T10:45:09.936Z,29.90
2023-07-18T10:47:38.813Z,28.17
2023-07-18T10:50:07.731Z,28.29
2023-07-18T10:52:36.090Z,28.28
2023-07-18T10:55:05.317Z,28.32
2023-07-18T10:57:37.225Z,28.75
2023-07-18T11:00:07.416Z,28.73
2023-07-18T11:02:42.852Z,29.68
2023-07-18T11:05:16.934Z,27.63
2023-07-18T11:07:45.591Z,27.33
2023-07-18T11:10:16.592Z,27.69
2023-07-18T11:12:44.230Z,28.69
2023-07-18T11:15:17.132Z,29.26
2023-07-18T11:17:44.673Z,28.03
2023-07-18T11:20:17.153Z,27.98
2023-07-18T11:22:43.766Z,27.85
2023-07-18T11:25:13.898Z,29.19
2023-07-18T11:27:41.035Z,29.05
2023-07-18T11:30:12.370Z,29.14
2023-07-18T11:32:49.050Z,28.73
2023-07-18T11:35:19.765Z,28.62
2023-07-18T11:37:49.262Z,27.34
2023-07-18T11:40:26.722Z,28.34
2023-07-18T11:42:59.197Z,27.48
2023-07-18T11:45:29.801Z,26.82
2023-07-18T11:47:58.957Z,27.58
2023-07-18T11:50:33.575Z,27.06
2023-07-18T11:53:02.518Z,26.63
2023-07-18T11:55:32.586Z,27.82
2023-07-18T11:57:59.356Z,28.18
2023-07-18T12:00:26.775Z,26.89
2023-07-18T12:02:53.780Z,26.60
2023-07-18T12:05:24.828Z,27.39
2023-07-18T12:07:54.765Z,27.49
2023-07-18T12:10:26.157Z,26.29
2023-07-18T12:12:55.647Z,26.29
2023-07-18T12:15:27.221Z,27.26
2023-07-18T12:17:53.928Z,27.14
2023-07-18T12:20:20.622Z,26.99
2023-07-18T12:22:48.219Z,27.13
2023-07-18T12:25:16.432Z,26.34
2023-07-18T12:27:43.033Z,25.62
2023-07-18T12:30:13.669Z,27.13
2023-07-18T12:32:41.774Z,26.44
2023-07-18T12:35:11.689Z,26.35
2023-07-18T12:37:42.865Z,26.48
2023-07-18T12:40:11.974Z,25.91
2023-07-18T12:42:41.562Z,25.25
2023-07-18T12:45:08.510Z,26.12
2023-07-18T12:47:35.174Z,26.42
2023-07-18T12:50:01.823Z,26.55
2023-07-18T12:52:28.415Z,26.80
2023-07-18T12:54:55.063Z,26.22
2023-07-18T12:57:21.752Z,26.32
2023-07-18T12:59:48.510Z,25.92
2023-07-18T13:02:15.428Z,26.62
2023-07-18T13:04:46.865Z,25.80
2023-07-18T13:07:16.028Z,27.42
2023-07-18T13:09:45.620Z,27.78
2023-07-18T13:12:12.357Z,25.84
2023-07-18T13:14:39.098Z,26.84
2023-07-18T13:17:08.646Z,26.37
2023-07-18T13:19:38.062Z,26.45
2023-07-18T13:22:04.901Z,26.85
2023-07-18T13:24:31.579Z,26.90
2023-07-18T13:26:58.284Z,26.42
2023-07-18T13:29:27.233Z,26.14
2023-07-18T13:31:58.709Z,26.34
2023-07-18T13:34:28.031Z,28.03
2023-07-18T13:36:54.627Z,27.36
2023-07-18T13:39:26.263Z,27.32
2023-07-18T13:41:55.240Z,26.82
2023-07-18T13:44:21.879Z,28.09
2023-07-18T13:46:48.699Z,26.81
2023-07-18T13:49:17.601Z,26.61
2023-07-18T13:51:44.326Z,28.14
2023-07-18T13:54:10.970Z,27.75
2023-07-18T13:56:37.786Z,27.20
2023-07-18T13:59:04.405Z,27.29
2023-07-18T14:01:31.166Z,27.64
2023-07-18T14:03:57.955Z,27.76
2023-07-18T14:06:24.675Z,27.94
2023-07-18T14:08:51.409Z,27.31
2023-07-18T14:11:17.998Z,27.83
2023-07-18T14:13:44.950Z,28.25
2023-07-18T14:16:14.247Z,26.92
2023-07-18T14:18:40.922Z,27.24
2023-07-18T14:21:09.928Z,27.20
2023-07-18T14:23:41.575Z,27.39
2023-07-18T14:26:08.141Z,27.28
2023-07-18T14:28:39.677Z,26.63
2023-07-18T14:31:06.461Z,26.81
2023-07-18T14:33:35.506Z,26.68
2023-07-18T14:36:04.944Z,26.36
2023-07-18T14:38:31.635Z,27.33
2023-07-18T14:40:58.408Z,27.89
2023-07-18T14:43:31.522Z,27.28
2023-07-18T14:45:58.374Z,26.85
2023-07-18T14:48:27.866Z,26.26
2023-07-18T14:50:55.033Z,26.40
2023-07-18T14:53:22.495Z,27.68
2023-07-18T14:55:49.376Z,27.36
2023-07-18T14:58:18.697Z,27.93
2023-07-18T15:00:47.868Z,26.80
2023-07-18T15:03:16.926Z,27.53
2023-07-18T15:05:46.089Z,26.69
2023-07-18T15:08:12.783Z,27.20
2023-07-18T15:10:41.686Z,26.40
2023-07-18T15:13:10.465Z,26.21
2023-07-18T15:15:39.971Z,26.42
2023-07-18T15:18:10.492Z,26.45
2023-07-18T15:20:37.407Z,26.19
2023-07-18T15:23:04.804Z,26.23
2023-07-18T15:25:32.380Z,26.04
2023-07-18T15:28:00.848Z,25.44
2023-07-18T15:30:30.607Z,25.49
2023-07-18T15:33:03.324Z,25.13
2023-07-18T15:35:38.984Z,25.22
2023-07-18T15:38:05.809Z,24.97
2023-07-18T15:40:32.424Z,25.07
2023-07-18T15:43:01.523Z,25.21
2023-07-18T15:45:28.130Z,24.94
2023-07-18T15:47:56.430Z,24.25
2023-07-18T15:50:26.241Z,24.42
2023-07-18T15:52:53.663Z,24.64
2023-07-18T15:55:23.285Z,24.71
2023-07-18T15:57:52.780Z,23.26
2023-07-18T16:00:21.710Z,21.96
2023-07-18T16:02:48.390Z,22.73
2023-07-18T16:05:15.631Z,22.62
2023-07-18T16:07:42.219Z,22.52
2023-07-18T16:10:11.461Z,22.76
2023-07-18T16:12:42.421Z,24.27
2023-07-18T16:15:13.572Z,23.81
2023-07-18T16:17:42.775Z,22.69
2023-07-18T16:20:14.911Z,22.98
2023-07-18T16:22:54.092Z,23.28
2023-07-18T16:25:23.128Z,22.65
2023-07-18T16:27:52.103Z,23.89
2023-07-18T16:30:21.728Z,24.66
2023-07-18T16:32:51.010Z,26.75
2023-07-18T16:35:19.915Z,26.58
2023-07-18T16:37:49.412Z,27.68
2023-07-18T16:40:16.401Z,28.21
2023-07-18T16:42:45.808Z,28.20
2023-07-18T16:45:15.096Z,28.52
2023-07-18T16:47:41.788Z,27.81
2023-07-18T16:50:09.003Z,28.73
2023-07-18T16:52:36.093Z,29.95
2023-07-18T16:55:02.873Z,29.49
2023-07-18T16:57:29.583Z,29.44
2023-07-18T16:59:58.318Z,30.42
2023-07-18T17:02:25.162Z,30.30
2023-07-18T17:04:52.186Z,30.44
2023-07-18T17:07:18.959Z,30.85
2023-07-18T17:09:50.077Z,31.68
2023-07-18T17:12:24.120Z,31.09
2023-07-18T17:14:53.387Z,32.48
2023-07-18T17:17:22.518Z,31.84
2023-07-18T17:20:05.127Z,32.57
2023-07-18T17:22:36.795Z,33.27
2023-07-18T17:25:06.574Z,33.06
2023-07-18T17:27:33.521Z,34.48
2023-07-18T17:30:01.935Z,33.98
2023-07-18T17:32:31.191Z,35.04
2023-07-18T17:34:58.355Z,35.07
2023-07-18T17:37:29.979Z,35.46
2023-07-18T17:39:56.609Z,36.19
2023-07-18T17:42:23.265Z,36.24
2023-07-18T17:44:51.818Z,36.13
2023-07-18T17:47:18.749Z,37.32
2023-07-18T17:49:45.493Z,36.57
2023-07-18T17:52:12.194Z,36.65
2023-07-18T17:54:42.832Z,37.17
2023-07-18T17:57:09.555Z,37.59
2023-07-18T17:59:43.412Z,38.19
2023-07-18T18:02:10.629Z,38.79
2023-07-18T18:04:39.918Z,37.26
2023-07-18T18:07:10.156Z,38.71
2023-07-18T18:09:38.769Z,39.15
2023-07-18T18:12:05.745Z,41.57
2023-07-18T18:14:32.358Z,41.86
2023-07-18T18:16:59.158Z,40.47
2023-07-18T18:19:26.164Z,41.00
2023-07-18T18:21:55.217Z,39.75
2023-07-18T18:24:21.959Z,41.49
2023-07-18T18:26:53.514Z,41.50
2023-07-18T18:29:22.974Z,41.29
2023-07-18T18:31:54.687Z,41.68
2023-07-18T18:34:23.840Z,42.82
2023-07-18T18:36:50.916Z,42.92
2023-07-18T18:39:18.589Z,43.65
2023-07-18T18:41:45.219Z,42.49
2023-07-18T18:44:14.308Z,43.55
2023-07-18T18:46:46.456Z,43.95
2023-07-18T18:49:25.986Z,44.40
2023-07-18T18:51:55.992Z,42.50
2023-07-18T18:54:24.800Z,43.12
2023-07-18T18:56:54.922Z,44.09
2023-07-18T18:59:23.774Z,45.14
2023-07-18T19:01:52.630Z,44.88
2023-07-18T19:04:24.250Z,44.36
2023-07-18T19:06:51.040Z,44.70
2023-07-18T19:09:20.377Z,44.87
2023-07-18T19:11:49.247Z,43.67
2023-07-18T19:14:15.882Z,44.01
2023-07-18T19:16:44.751Z,44.60
2023-07-18T19:19:13.615Z,44.69
2023-07-18T19:21:43.076Z,44.05
2023-07-18T19:24:12.098Z,44.14
2023-07-18T19:26:39.011Z,44.30
2023-07-18T19:29:08.172Z,43.82
2023-07-18T19:31:34.943Z,44.79
2023-07-18T19:34:03.848Z,43.91
2023-07-18T19:36:34.658Z,44.25
2023-07-18T19:39:03.781Z,44.00
2023-07-18T19:41:30.485Z,44.43
2023-07-18T19:43:59.846Z,44.46
2023-07-18T19:46:28.711Z,44.85
2023-07-18T19:48:55.381Z,44.58
2023-07-18T19:51:26.815Z,44.84
2023-07-18T19:53:55.666Z,44.62
2023-07-18T19:56:22.373Z,44.57
2023-07-18T19:58:49.392Z,45.23
2023-07-18T20:01:19.046Z,43.91
2023-07-18T20:03:58.776Z,43.61
2023-07-18T20:06:27.022Z,44.07
2023-07-18T20:08:53.970Z,44.17
2023-07-18T20:11:21.730Z,44.08
2023-07-18T20:13:53.926Z,44.64
2023-07-18T20:16:21.568Z,44.98
2023-07-18T20:18:55.542Z,45.18
2023-07-18T20:21:25.565Z,44.49
2023-07-18T20:23:55.520Z,44.24
2023-07-18T20:26:25.077Z,44.43
2023-07-18T20:28:51.863Z,45.12
2023-07-18T20:31:18.775Z,45.40
2023-07-18T20:33:48.425Z,45.59
2023-07-18T20:36:17.426Z,44.84
2023-07-18T20:38:46.975Z,45.33
2023-07-18T20:41:21.259Z,45.14
2023-07-18T20:43:48.503Z,44.96
2023-07-18T20:46:22.155Z,45.08
2023-07-18T20:48:51.049Z,45.03
2023-07-18T20:51:20.378Z,44.93
2023-07-18T20:53:49.913Z,44.66
2023-07-18T20:56:19.762Z,45.68
2023-07-18T20:58:46.430Z,45.00
2023-07-18T21:01:15.284Z,44.58
2023-07-18T21:03:47.153Z,44.36
2023-07-18T21:06:14.026Z,45.14
2023-07-18T21:08:43.138Z,45.50
2023-07-18T21:11:12.564Z,45.46
2023-07-18T21:13:42.196Z,44.49
2023-07-18T21:16:08.961Z,44.83
2023-07-18T21:18:36.109Z,44.75
2023-07-18T21:21:03.069Z,45.43
2023-07-18T21:23:29.942Z,45.49
2023-07-18T21:25:56.816Z,45.78
2023-07-18T21:28:23.495Z,45.84
2023-07-18T21:30:51.240Z,46.06
2023-07-18T21:33:20.280Z,46.34
2023-07-18T21:35:51.378Z,46.48
2023-07-18T21:38:20.271Z,46.97
2023-07-18T21:40:46.962Z,46.99
2023-07-18T21:43:13.622Z,47.27
2023-07-18T21:45:45.921Z,47.58
2023-07-18T21:48:12.885Z,46.97
2023-07-18T21:50:45.293Z,48.17
2023-07-18T21:53:17.251Z,48.44
2023-07-18T21:55:49.395Z,48.34
2023-07-18T21:58:16.243Z,48.40
2023-07-18T22:00:43.152Z,48.65
2023-07-18T22:03:10.041Z,48.48
2023-07-18T22:05:39.324Z,48.45
2023-07-18T22:08:06.119Z,48.79
2023-07-18T22:10:35.128Z,48.83
2023-07-18T22:13:04.610Z,48.88
2023-07-18T22:15:34.014Z,49.25
2023-07-18T22:18:12.072Z,49.60
2023-07-18T22:20:47.844Z,49.73
2023-07-18T22:23:17.115Z,50.79
2023-07-18T22:25:44.010Z,50.60
2023-07-18T22:28:15.443Z,51.05
2023-07-18T22:30:44.425Z,51.00
2023-07-18T22:33:11.452Z,51.75
2023-07-18T22:35:45.389Z,51.76
2023-07-18T22:38:12.113Z,51.89
2023-07-18T22:40:41.616Z,51.91
2023-07-18T22:43:08.384Z,52.79
2023-07-18T22:45:37.265Z,53.25
2023-07-18T22:48:06.213Z,54.57
2023-07-18T22:50:35.382Z,55.04
2023-07-18T22:53:04.903Z,55.26
2023-07-18T22:55:38.665Z,55.22
2023-07-18T22:58:05.384Z,54.35
2023-07-18T23:00:34.558Z,50.95
2023-07-18T23:03:04.502Z,53.91
2023-07-18T23:05:33.537Z,54.25
2023-07-18T23:08:00.210Z,54.44
2023-07-18T23:10:26.970Z,54.88
2023-07-18T23:12:56.104Z,54.79
2023-07-18T23:15:23.120Z,54.27
2023-07-18T23:17:49.868Z,53.53
2023-07-18T23:20:16.574Z,53.44
2023-07-18T23:22:43.250Z,53.36
2023-07-18T23:25:10.222Z,52.31
2023-07-18T23:27:36.872Z,52.57
2023-07-18T23:30:06.507Z,53.64
2023-07-18T23:32:33.126Z,54.06
2023-07-18T23:35:05.059Z,52.43
2023-07-18T23:37:36.668Z,51.28
2023-07-18T23:40:06.259Z,50.82
2023-07-18T23:42:32.950Z,50.62
2023-07-18T23:44:59.728Z,50.54
2023-07-18T23:47:26.604Z,50.51
2023-07-18T23:49:53.422Z,50.40
2023-07-18T23:52:22.612Z,50.24
2023-07-18T23:54:52.345Z,50.76
2023-07-18T23:57:21.771Z,51.03
2023-07-18T23:59:48.496Z,50.96
